createdAt,value
2023-03-13T00:00:06.634Z,99979.50
2023-03-13T00:00:28.518Z,99984.09
2023-03-13T00:00:52.226Z,99976.78
2023-03-13T00:01:19.701Z,99976.94
2023-03-13T00:01:42.908Z,99970.84
2023-03-13T00:02:05.743Z,99971.63
2023-03-13T00:02:27.685Z,99970.31
2023-03-13T00:02:50.570Z,99973.91
2023-03-13T00:03:12.240Z,99977.97
2023-03-13T00:03:33.874Z,99957.16
2023-03-13T00:03:56.869Z,99970.84
2023-03-13T00:04:18.747Z,99958.69
2023-03-13T00:04:40.370Z,99962.63
2023-03-13T00:05:02.084Z,99967.28
2023-03-13T00:05:24.838Z,99951.91
2023-03-13T00:05:47.166Z,99947.50
2023-03-13T00:06:09.595Z,99961.09
2023-03-13T00:06:33.258Z,99955.69
2023-03-13T00:06:56.154Z,99960.22
2023-03-13T00:07:17.754Z,99956.44
2023-03-13T00:07:39.875Z,99950.28
2023-03-13T00:08:01.457Z,99947.41
2023-03-13T00:08:25.120Z,99948.34
2023-03-13T00:08:47.733Z,99962.31
2023-03-13T00:09:11.002Z,99958.75
2023-03-13T00:09:32.924Z,99956.09
2023-03-13T00:09:54.682Z,99955.22
2023-03-13T00:10:17.797Z,99958.00
2023-03-13T00:10:40.224Z,99933.81
2023-03-13T00:11:03.116Z,99959.72
2023-03-13T00:11:24.963Z,99953.44
2023-03-13T00:11:48.597Z,99949.81
2023-03-13T00:12:10.198Z,99950.59
2023-03-13T00:12:32.338Z,99947.16
2023-03-13T00:12:54.159Z,99946.56
2023-03-13T00:13:17.744Z,99942.25
2023-03-13T00:13:40.417Z,99954.81
2023-03-13T00:14:03.800Z,99933.16
2023-03-13T00:14:25.489Z,99940.69
2023-03-13T00:14:47.085Z,99943.38
2023-03-13T00:15:10.506Z,99940.69
2023-03-13T00:15:32.207Z,99931.16
2023-03-13T00:16:00.665Z,99923.50
2023-03-13T00:16:22.593Z,99934.53
2023-03-13T00:16:45.318Z,99928.94
2023-03-13T00:17:07.318Z,99928.94
2023-03-13T00:17:29.135Z,99931.66
2023-03-13T00:17:50.774Z,99929.75
2023-03-13T00:18:13.422Z,99928.06
2023-03-13T00:18:35.362Z,99918.53
2023-03-13T00:18:58.516Z,99918.53
2023-03-13T00:19:21.094Z,99932.81
2023-03-13T00:19:42.987Z,99916.09
2023-03-13T00:20:07.266Z,99917.13
2023-03-13T00:20:29.691Z,99924.09
2023-03-13T00:20:59.206Z,99915.34
2023-03-13T00:21:23.238Z,99920.00
2023-03-13T00:21:44.827Z,99919.81
2023-03-13T00:22:07.470Z,99919.63
2023-03-13T00:22:29.341Z,99910.84
2023-03-13T00:22:51.205Z,99915.41
2023-03-13T00:23:13.275Z,99917.91
2023-03-13T00:23:37.513Z,99911.72
2023-03-13T00:24:00.216Z,99909.22
2023-03-13T00:24:21.924Z,99911.63
2023-03-13T00:24:43.522Z,99908.94
2023-03-13T00:25:05.994Z,99905.25
2023-03-13T00:25:29.922Z,99911.34
2023-03-13T00:25:57.163Z,99906.97
2023-03-13T00:26:20.600Z,99894.50
2023-03-13T00:26:43.577Z,99903.44
2023-03-13T00:27:06.913Z,99909.53
2023-03-13T00:27:32.027Z,99900.94
2023-03-13T00:27:53.694Z,99894.75
2023-03-13T00:28:16.315Z,99893.66
2023-03-13T00:28:40.584Z,99897.94
2023-03-13T00:29:02.249Z,99883.66
2023-03-13T00:29:23.929Z,99899.25
2023-03-13T00:29:45.487Z,99896.47
2023-03-13T00:30:11.917Z,99892.78
2023-03-13T00:30:33.777Z,99900.50
2023-03-13T00:31:03.577Z,99897.66
2023-03-13T00:31:28.282Z,99885.19
2023-03-13T00:31:50.343Z,99887.84
2023-03-13T00:32:13.253Z,99885.97
2023-03-13T00:32:40.234Z,99882.31
2023-03-13T00:33:03.198Z,99888.53
2023-03-13T00:33:25.276Z,99884.91
2023-03-13T00:33:48.768Z,99882.16
2023-03-13T00:34:11.024Z,99875.97
2023-03-13T00:34:33.601Z,99882.16
2023-03-13T00:34:55.255Z,99876.16
2023-03-13T00:35:17.615Z,99858.78
2023-03-13T00:35:44.187Z,99878.97
2023-03-13T00:36:08.722Z,99876.22
2023-03-13T00:36:34.080Z,99870.91
2023-03-13T00:36:56.861Z,99872.69
2023-03-13T00:37:18.508Z,99873.50
2023-03-13T00:37:40.226Z,99853.69
2023-03-13T00:38:03.008Z,99870.69
2023-03-13T00:38:24.698Z,99872.91
2023-03-13T00:38:46.940Z,99871.91
2023-03-13T00:39:09.450Z,99860.50
2023-03-13T00:39:32.103Z,99867.63
2023-03-13T00:39:56.443Z,99869.44
2023-03-13T00:40:18.893Z,99853.69
2023-03-13T00:40:40.937Z,99870.03
2023-03-13T00:41:04.409Z,99868.91
2023-03-13T00:41:28.911Z,99871.28
2023-03-13T00:41:50.840Z,99849.28
2023-03-13T00:42:13.065Z,99864.66
2023-03-13T00:42:34.918Z,99860.25
2023-03-13T00:42:56.614Z,99872.31
2023-03-13T00:43:19.142Z,99870.38
2023-03-13T00:43:43.850Z,99872.31
2023-03-13T00:44:06.242Z,99855.56
2023-03-13T00:44:29.164Z,99866.78
2023-03-13T00:44:50.770Z,99853.91
2023-03-13T00:45:12.359Z,99872.56
2023-03-13T00:45:34.841Z,99875.91
2023-03-13T00:45:56.636Z,99866.09
2023-03-13T00:46:21.878Z,99868.66
2023-03-13T00:46:43.566Z,99867.56
2023-03-13T00:47:07.041Z,99869.09
2023-03-13T00:47:28.796Z,99872.50
2023-03-13T00:47:50.529Z,99827.66
2023-03-13T00:48:13.060Z,99867.16
2023-03-13T00:48:34.761Z,99866.31
2023-03-13T00:48:56.761Z,99869.50
2023-03-13T00:49:19.390Z,99873.03
2023-03-13T00:49:41.048Z,99867.09
2023-03-13T00:50:03.023Z,99869.75
2023-03-13T00:50:24.808Z,99868.31
2023-03-13T00:50:46.490Z,99863.16
2023-03-13T00:51:10.161Z,99852.25
2023-03-13T00:51:32.367Z,99865.72
2023-03-13T00:51:54.278Z,99861.94
2023-03-13T00:52:16.146Z,99812.69
2023-03-13T00:52:39.853Z,99860.88
2023-03-13T00:53:02.999Z,99850.06
2023-03-13T00:53:25.409Z,99844.88
2023-03-13T00:53:47.637Z,99823.69
2023-03-13T00:54:10.442Z,99864.34
2023-03-13T00:54:32.561Z,99847.75
2023-03-13T00:54:54.307Z,99814.13
2023-03-13T00:55:16.349Z,99852.81
2023-03-13T00:55:38.347Z,99791.19
2023-03-13T00:56:03.341Z,99845.06
2023-03-13T00:56:25.289Z,99835.25
2023-03-13T00:56:47.038Z,99798.38
2023-03-13T00:57:08.899Z,99783.50
2023-03-13T00:57:32.606Z,99854.34
2023-03-13T00:57:54.363Z,99844.53
2023-03-13T00:58:16.037Z,99837.31
2023-03-13T00:58:40.091Z,99843.47
2023-03-13T00:59:04.094Z,99845.03
2023-03-13T00:59:26.007Z,99827.94
2023-03-13T00:59:47.855Z,99827.16
2023-03-13T01:00:10.751Z,99843.31
2023-03-13T01:00:33.615Z,99843.31
2023-03-13T01:00:55.888Z,99833.84
2023-03-13T01:01:19.881Z,99842.13
2023-03-13T01:01:43.766Z,99841.28
2023-03-13T01:02:06.538Z,99843.84
2023-03-13T01:02:28.384Z,99830.00
2023-03-13T01:02:50.286Z,99839.38
2023-03-13T01:03:12.125Z,99845.22
2023-03-13T01:03:33.913Z,99837.34
2023-03-13T01:04:00.153Z,99840.09
2023-03-13T01:04:21.918Z,99828.56
2023-03-13T01:04:45.166Z,99846.59
2023-03-13T01:05:07.910Z,99841.34
2023-03-13T01:05:29.576Z,99844.13
2023-03-13T01:05:58.340Z,99836.78
2023-03-13T01:06:23.681Z,99845.47
2023-03-13T01:06:45.429Z,99829.66
2023-03-13T01:07:07.015Z,99844.16
2023-03-13T01:07:30.543Z,99828.59
2023-03-13T01:07:52.347Z,99844.25
2023-03-13T01:08:15.006Z,99834.53
2023-03-13T01:08:37.215Z,99834.44
2023-03-13T01:09:00.803Z,99836.31
2023-03-13T01:09:22.676Z,99839.53
2023-03-13T01:09:44.687Z,99835.25
2023-03-13T01:10:07.752Z,99839.75
2023-03-13T01:10:29.439Z,99838.69
2023-03-13T01:10:52.168Z,99817.22
2023-03-13T01:11:17.806Z,99833.19
2023-03-13T01:11:41.874Z,99828.88
2023-03-13T01:12:48.540Z,99835.94
2023-03-13T01:13:10.687Z,99827.34
2023-03-13T01:13:33.109Z,99837.66
2023-03-13T01:13:55.883Z,99834.78
2023-03-13T01:14:21.419Z,99826.19
2023-03-13T01:14:43.674Z,99828.59
2023-03-13T01:15:06.185Z,99837.31
2023-03-13T01:15:27.819Z,99832.72
2023-03-13T01:15:49.466Z,99834.44
2023-03-13T01:16:13.954Z,99829.03
2023-03-13T01:16:37.544Z,99828.16
2023-03-13T01:16:59.270Z,99832.53
2023-03-13T01:17:21.157Z,99813.38
2023-03-13T01:17:43.918Z,99821.72
2023-03-13T01:18:06.828Z,99823.38
2023-03-13T01:18:28.684Z,99823.09
2023-03-13T01:18:53.418Z,99815.09
2023-03-13T01:19:17.531Z,99820.44
2023-03-13T01:19:40.371Z,99827.09
2023-03-13T01:20:01.963Z,99812.72
2023-03-13T01:20:24.110Z,99815.56
2023-03-13T01:20:46.794Z,99822.97
2023-03-13T01:21:09.570Z,99821.00
2023-03-13T01:21:31.646Z,99816.41
2023-03-13T01:21:54.631Z,99819.75
2023-03-13T01:22:16.242Z,99821.41
2023-03-13T01:22:37.990Z,99794.41
2023-03-13T01:22:59.725Z,99819.50
2023-03-13T01:23:21.372Z,99815.84
2023-03-13T01:23:44.177Z,99815.97
2023-03-13T01:24:06.420Z,99815.97
2023-03-13T01:24:28.076Z,99816.72
2023-03-13T01:24:52.409Z,99811.50
2023-03-13T01:25:17.326Z,99815.97
2023-03-13T01:25:39.992Z,99818.44
2023-03-13T01:26:04.790Z,99813.97
2023-03-13T01:26:29.572Z,99812.91
2023-03-13T01:26:52.376Z,99816.34
2023-03-13T01:27:15.017Z,99811.88
2023-03-13T01:27:37.519Z,99812.53
2023-03-13T01:27:59.101Z,99808.72
2023-03-13T01:28:20.777Z,99810.53
2023-03-13T01:28:44.051Z,99815.13
2023-03-13T01:29:05.917Z,99808.84
2023-03-13T01:29:28.909Z,99802.66
2023-03-13T01:29:50.498Z,99804.44
2023-03-13T01:30:13.692Z,99798.06
2023-03-13T01:30:35.354Z,99808.72
2023-03-13T01:30:57.137Z,99795.50
2023-03-13T01:31:20.966Z,99789.88
2023-03-13T01:31:43.637Z,99810.28
2023-03-13T01:32:06.246Z,99794.72
2023-03-13T01:32:29.086Z,99807.69
2023-03-13T01:32:50.788Z,99790.81
2023-03-13T01:33:14.509Z,99794.63
2023-03-13T01:33:37.841Z,99808.38
2023-03-13T01:34:02.035Z,99769.53
2023-03-13T01:34:24.089Z,99790.63
2023-03-13T01:34:47.668Z,99788.16
2023-03-13T01:35:09.370Z,99800.56
2023-03-13T01:35:32.209Z,99797.19
2023-03-13T01:36:02.487Z,99777.25
2023-03-13T01:36:26.655Z,99779.34
2023-03-13T01:36:50.629Z,99782.22
2023-03-13T01:37:12.334Z,99790.81
2023-03-13T01:37:33.989Z,99781.44
2023-03-13T01:37:55.634Z,99787.66
2023-03-13T01:38:18.622Z,99781.56
2023-03-13T01:38:40.741Z,99785.06
2023-03-13T01:39:02.348Z,99745.47
2023-03-13T01:39:24.113Z,99749.44
2023-03-13T01:39:46.851Z,99787.91
2023-03-13T01:40:10.013Z,99779.63
2023-03-13T01:40:32.002Z,99782.19
2023-03-13T01:40:53.796Z,99786.47
2023-03-13T01:41:16.736Z,99785.44
2023-03-13T01:41:38.924Z,99783.53
2023-03-13T01:42:00.710Z,99786.13
2023-03-13T01:42:23.510Z,99775.34
2023-03-13T01:42:52.705Z,99782.50
2023-03-13T01:43:27.632Z,99779.72
2023-03-13T01:43:52.837Z,99777.63
2023-03-13T01:44:22.689Z,99779.34
2023-03-13T01:44:53.161Z,99768.38
2023-03-13T01:45:49.577Z,99778.97
2023-03-13T01:46:14.199Z,99768.09
2023-03-13T01:46:44.833Z,99770.13
2023-03-13T01:47:27.169Z,99766.50
2023-03-13T01:48:02.038Z,99768.28
2023-03-13T01:48:46.091Z,99758.75
2023-03-13T01:49:12.780Z,99757.03
2023-03-13T01:49:55.718Z,99766.78
2023-03-13T01:50:47.390Z,99766.19
2023-03-13T01:51:26.951Z,99765.78
2023-03-13T01:51:52.548Z,99770.97
2023-03-13T01:52:18.461Z,99761.88
2023-03-13T01:52:45.378Z,99771.13
2023-03-13T01:53:13.115Z,99768.47
2023-03-13T01:53:41.091Z,99761.88
2023-03-13T01:54:06.433Z,99756.38
2023-03-13T01:54:32.818Z,99757.91
2023-03-13T01:54:59.812Z,99763.31
2023-03-13T01:55:22.658Z,99759.50
2023-03-13T01:55:47.727Z,99757.53
2023-03-13T01:56:16.545Z,99752.28
2023-03-13T01:56:45.600Z,99720.53
2023-03-13T01:57:12.483Z,99756.47
2023-03-13T01:57:38.569Z,99750.63
2023-03-13T01:58:02.832Z,99749.25
2023-03-13T01:58:28.224Z,99740.94
2023-03-13T01:58:52.472Z,99721.34
2023-03-13T01:59:17.590Z,99754.63
2023-03-13T01:59:43.285Z,99743.53
2023-03-13T02:00:12.472Z,99750.31
2023-03-13T02:00:38.449Z,99750.03
2023-03-13T02:01:05.435Z,99735.69
2023-03-13T02:01:28.788Z,99736.72
2023-03-13T02:01:53.154Z,99741.50
2023-03-13T02:02:17.958Z,99731.44
2023-03-13T02:02:42.872Z,99733.66
2023-03-13T02:03:09.046Z,99730.03
2023-03-13T02:03:31.316Z,99718.31
2023-03-13T02:03:57.805Z,99724.13
2023-03-13T02:04:22.157Z,99726.81
2023-03-13T02:04:48.016Z,99725.94
2023-03-13T02:05:09.975Z,99727.47
2023-03-13T02:05:32.829Z,99720.31
2023-03-13T02:05:56.351Z,99719.56
2023-03-13T02:06:18.687Z,99728.63
2023-03-13T02:06:44.104Z,99724.41
2023-03-13T02:07:10.828Z,99715.59
2023-03-13T02:07:40.117Z,99717.69
2023-03-13T02:08:05.162Z,99706.84
2023-03-13T02:08:32.615Z,99714.47
2023-03-13T02:09:00.462Z,99703.72
2023-03-13T02:09:25.961Z,99707.41
2023-03-13T02:09:52.068Z,99703.53
2023-03-13T02:10:17.879Z,99709.56
2023-03-13T02:10:44.785Z,99692.56
2023-03-13T02:11:16.139Z,99706.97
2023-03-13T02:11:47.418Z,99703.13
2023-03-13T02:12:13.894Z,99702.50
2023-03-13T02:12:38.682Z,99707.63
2023-03-13T02:13:02.973Z,99705.63
2023-03-13T02:13:25.807Z,99694.84
2023-03-13T02:13:48.704Z,99700.78
2023-03-13T02:14:13.312Z,99696.97
2023-03-13T02:14:38.429Z,99664.50
2023-03-13T02:15:03.092Z,99687.94
2023-03-13T02:15:28.517Z,99669.81
2023-03-13T02:15:51.374Z,99698.59
2023-03-13T02:16:13.373Z,99689.81
2023-03-13T02:16:36.573Z,99679.72
2023-03-13T02:17:01.867Z,99690.59
2023-03-13T02:17:24.888Z,99674.47
2023-03-13T02:17:48.499Z,99678.06
2023-03-13T02:18:10.869Z,99681.53
2023-03-13T02:18:34.856Z,99684.97
2023-03-13T02:18:56.541Z,99687.44
2023-03-13T02:19:24.565Z,99687.16
2023-03-13T02:19:50.021Z,99680.22
2023-03-13T02:20:15.002Z,99678.78
2023-03-13T02:20:39.218Z,99665.53
2023-03-13T02:21:09.988Z,99671.25
2023-03-13T02:21:41.283Z,99675.91
2023-03-13T02:22:12.507Z,99666.94
2023-03-13T02:22:43.765Z,99664.69
2023-03-13T02:23:13.690Z,99677.91
2023-03-13T02:23:42.752Z,99671.41
2023-03-13T02:24:15.093Z,99666.50
2023-03-13T02:24:45.670Z,99649.63
2023-03-13T02:25:17.029Z,99674.88
2023-03-13T02:25:43.277Z,99663.03
2023-03-13T02:26:07.632Z,99670.56
2023-03-13T02:26:29.643Z,99665.53
2023-03-13T02:26:52.595Z,99662.13
2023-03-13T02:27:14.790Z,99661.03
2023-03-13T02:27:39.682Z,99666.38
2023-03-13T02:28:05.530Z,99658.09
2023-03-13T02:28:33.719Z,99669.53
2023-03-13T02:28:56.608Z,99670.28
2023-03-13T02:29:20.236Z,99666.59
2023-03-13T02:29:42.523Z,99664.50
2023-03-13T02:30:06.482Z,99646.06
2023-03-13T02:30:28.754Z,99654.09
2023-03-13T02:30:54.171Z,99654.09
2023-03-13T02:31:17.162Z,99648.28
2023-03-13T02:31:39.355Z,99658.00
2023-03-13T02:32:03.287Z,99645.31
2023-03-13T02:32:28.084Z,99657.03
2023-03-13T02:32:53.127Z,99659.25
2023-03-13T02:33:16.181Z,99658.66
2023-03-13T02:33:42.007Z,99654.47
2023-03-13T02:34:06.337Z,99654.94
2023-03-13T02:34:31.919Z,99663.72
2023-03-13T02:34:58.317Z,99663.41
2023-03-13T02:35:23.198Z,99657.88
2023-03-13T02:35:46.399Z,99659.81
2023-03-13T02:36:12.581Z,99655.03
2023-03-13T02:36:35.700Z,99636.25
2023-03-13T02:37:00.412Z,99658.44
2023-03-13T02:37:26.431Z,99663.19
2023-03-13T02:37:53.011Z,99653.66
2023-03-13T02:38:20.997Z,99644.06
2023-03-13T02:38:49.322Z,99657.72
2023-03-13T02:39:14.353Z,99656.84
2023-03-13T02:39:39.672Z,99640.38
2023-03-13T02:40:05.933Z,99648.59
2023-03-13T02:40:31.189Z,99631.72
2023-03-13T02:40:56.434Z,99656.34
2023-03-13T02:41:24.770Z,99646.94
2023-03-13T02:41:48.975Z,99655.41
2023-03-13T02:42:11.695Z,99657.69
2023-03-13T02:42:34.510Z,99650.16
2023-03-13T02:42:59.397Z,99660.94
2023-03-13T02:43:30.600Z,99656.78
2023-03-13T02:43:52.697Z,99656.78
2023-03-13T02:44:15.600Z,99661.47
2023-03-13T02:44:40.168Z,99659.38
2023-03-13T02:45:02.671Z,99658.53
2023-03-13T02:45:24.296Z,99657.19
2023-03-13T02:46:04.759Z,99654.63
2023-03-13T02:46:28.991Z,99654.94
2023-03-13T02:46:52.725Z,99654.06
2023-03-13T02:47:20.521Z,99654.94
2023-03-13T02:47:42.382Z,99651.16
2023-03-13T02:48:06.264Z,99655.50
2023-03-13T02:48:33.263Z,99659.03
2023-03-13T02:48:56.592Z,99651.03
2023-03-13T02:49:22.880Z,99653.78
2023-03-13T02:49:45.952Z,99650.81
2023-03-13T02:50:08.010Z,99649.19
2023-03-13T02:50:30.578Z,99655.19
2023-03-13T02:50:52.355Z,99651.00
2023-03-13T02:51:21.510Z,99644.25
2023-03-13T02:51:46.412Z,99642.06
2023-03-13T02:52:14.533Z,99649.13
2023-03-13T02:52:42.735Z,99648.56
2023-03-13T02:53:08.601Z,99648.06
2023-03-13T02:53:30.896Z,99655.63
2023-03-13T02:53:55.678Z,99651.16
2023-03-13T02:54:21.122Z,99648.00
2023-03-13T02:54:46.433Z,99642.47
2023-03-13T02:55:15.498Z,99646.00
2023-03-13T02:55:39.750Z,99629.25
2023-03-13T02:56:05.294Z,99649.81
2023-03-13T02:56:30.157Z,99645.31
2023-03-13T02:56:56.024Z,99651.53
2023-03-13T02:57:18.573Z,99647.13
2023-03-13T02:57:40.322Z,99634.66
2023-03-13T02:58:02.266Z,99640.38
2023-03-13T02:58:31.759Z,99642.75
2023-03-13T02:58:55.674Z,99641.91
2023-03-13T02:59:19.950Z,99639.41
2023-03-13T02:59:43.755Z,99639.03
2023-03-13T03:00:07.788Z,99627.44
2023-03-13T03:00:29.669Z,99649.44
2023-03-13T03:00:53.852Z,99640.84
2023-03-13T03:01:17.103Z,99636.25
2023-03-13T03:01:40.813Z,99638.56
2023-03-13T03:02:03.251Z,99639.34
2023-03-13T03:02:24.972Z,99640.38
2023-03-13T03:02:49.217Z,99635.03
2023-03-13T03:03:10.802Z,99645.69
2023-03-13T03:03:32.520Z,99641.78
2023-03-13T03:03:54.418Z,99637.09
2023-03-13T03:04:17.086Z,99633.13
2023-03-13T03:04:38.807Z,99634.56
2023-03-13T03:05:00.404Z,99634.66
2023-03-13T03:05:22.824Z,99622.84
2023-03-13T03:05:46.831Z,99632.06
2023-03-13T03:06:08.620Z,99625.41
2023-03-13T03:06:30.761Z,99640.56
2023-03-13T03:06:54.115Z,99628.16
2023-03-13T03:07:17.929Z,99631.22
2023-03-13T03:07:41.178Z,99622.91
2023-03-13T03:08:02.888Z,99628.09
2023-03-13T03:08:27.844Z,99616.34
2023-03-13T03:08:51.010Z,99624.94
2023-03-13T03:09:16.148Z,99620.53
2023-03-13T03:09:38.846Z,99628.09
2023-03-13T03:10:06.449Z,99622.75
2023-03-13T03:10:32.576Z,99623.03
2023-03-13T03:10:54.250Z,99618.72
2023-03-13T03:11:19.822Z,99611.31
2023-03-13T03:11:46.475Z,99620.81
2023-03-13T03:12:10.194Z,99616.19
2023-03-13T03:12:31.965Z,99612.25
2023-03-13T03:12:55.284Z,99611.59
2023-03-13T03:13:16.993Z,99601.22
2023-03-13T03:13:39.142Z,99610.66
2023-03-13T03:14:01.693Z,99601.78
2023-03-13T03:14:27.842Z,99613.59
2023-03-13T03:14:49.639Z,99604.53
2023-03-13T03:15:13.561Z,99604.94
2023-03-13T03:15:39.214Z,99589.59
2023-03-13T03:16:08.334Z,99609.78
2023-03-13T03:16:30.166Z,99605.03
2023-03-13T03:16:52.141Z,99601.31
2023-03-13T03:17:13.774Z,99613.50
2023-03-13T03:17:37.819Z,99603.78
2023-03-13T03:17:59.426Z,99603.69
2023-03-13T03:18:21.199Z,99597.50
2023-03-13T03:18:43.069Z,99606.06
2023-03-13T03:19:06.527Z,99609.31
2023-03-13T03:19:28.303Z,99603.88
2023-03-13T03:19:53.428Z,99605.09
2023-03-13T03:20:15.824Z,99596.16
2023-03-13T03:20:39.445Z,99599.88
2023-03-13T03:21:01.254Z,99603.50
2023-03-13T03:21:23.906Z,99592.06
2023-03-13T03:21:46.738Z,99592.91
2023-03-13T03:22:10.167Z,99584.63
2023-03-13T03:22:31.772Z,99596.16
2023-03-13T03:22:56.924Z,99599.59
2023-03-13T03:23:18.639Z,99593.19
2023-03-13T03:23:41.259Z,99599.31
2023-03-13T03:24:03.763Z,99594.81
2023-03-13T03:24:25.627Z,99591.38
2023-03-13T03:24:47.378Z,99596.44
2023-03-13T03:25:10.651Z,99599.09
2023-03-13T03:25:34.523Z,99602.44
2023-03-13T03:25:56.245Z,99598.47
2023-03-13T03:26:19.349Z,99601.88
2023-03-13T03:26:42.547Z,99598.91
2023-03-13T03:27:11.042Z,99601.31
2023-03-13T03:27:38.442Z,99592.16
2023-03-13T03:28:03.226Z,99599.22
2023-03-13T03:28:25.941Z,99589.28
2023-03-13T03:28:48.739Z,99596.25
2023-03-13T03:29:11.072Z,99593.69
2023-03-13T03:29:33.395Z,99598.94
2023-03-13T03:29:56.056Z,99595.41
2023-03-13T03:30:18.256Z,99593.69
2023-03-13T03:30:39.912Z,99599.09
2023-03-13T03:31:04.539Z,99596.81
2023-03-13T03:31:29.786Z,99600.25
2023-03-13T03:31:51.737Z,99602.34
2023-03-13T03:32:14.406Z,99601.13
2023-03-13T03:32:37.989Z,99598.84
2023-03-13T03:33:04.432Z,99589.22
2023-03-13T03:33:31.904Z,99605.69
2023-03-13T03:33:55.569Z,99597.59
2023-03-13T03:34:17.845Z,99592.91
2023-03-13T03:34:42.644Z,99599.13
2023-03-13T03:35:04.993Z,99597.00
2023-03-13T03:35:26.662Z,99597.78
2023-03-13T03:35:48.761Z,99606.44
2023-03-13T03:36:14.580Z,99609.13
2023-03-13T03:36:36.239Z,99611.03
2023-03-13T03:36:59.546Z,99607.69
2023-03-13T03:37:23.186Z,99609.13
2023-03-13T03:37:45.108Z,99609.78
2023-03-13T03:38:08.089Z,99600.91
2023-03-13T03:38:30.392Z,99596.94
2023-03-13T03:38:52.544Z,99603.13
2023-03-13T03:39:18.730Z,99585.13
2023-03-13T03:39:41.454Z,99582.25
2023-03-13T03:40:05.574Z,99595.84
2023-03-13T03:40:28.684Z,99597.13
2023-03-13T03:40:51.155Z,99598.34
2023-03-13T03:41:14.903Z,99601.03
2023-03-13T03:41:37.934Z,99605.38
2023-03-13T03:42:00.507Z,99598.72
2023-03-13T03:42:22.221Z,99594.25
2023-03-13T03:42:44.774Z,99601.50
2023-03-13T03:43:06.434Z,99604.81
2023-03-13T03:43:28.268Z,99590.53
2023-03-13T03:43:50.681Z,99591.97
2023-03-13T03:44:16.846Z,99597.88
2023-03-13T03:44:48.770Z,99600.25
2023-03-13T03:45:11.285Z,99582.53
2023-03-13T03:45:33.051Z,99598.25
2023-03-13T03:45:54.811Z,99589.50
2023-03-13T03:46:19.790Z,99590.22
2023-03-13T03:46:41.901Z,99592.53
2023-03-13T03:47:03.705Z,99591.38
2023-03-13T03:47:29.714Z,99588.53
2023-03-13T03:47:51.473Z,99587.84
2023-03-13T03:48:13.189Z,99595.00
2023-03-13T03:48:36.318Z,99594.16
2023-03-13T03:49:00.001Z,99587.78
2023-03-13T03:49:21.863Z,99593.84
2023-03-13T03:49:44.028Z,99593.41
2023-03-13T03:50:08.177Z,99589.66
2023-03-13T03:50:39.683Z,99585.19
2023-03-13T03:51:01.407Z,99578.44
2023-03-13T03:51:24.202Z,99579.78
2023-03-13T03:51:45.874Z,99523.28
2023-03-13T03:52:09.646Z,99566.63
2023-03-13T03:52:34.510Z,99587.50
2023-03-13T03:52:56.370Z,99577.97
2023-03-13T03:53:20.179Z,99587.78
2023-03-13T03:53:42.885Z,99581.09
2023-03-13T03:54:04.852Z,99573.88
2023-03-13T03:54:27.765Z,99577.13
2023-03-13T03:54:50.225Z,99574.81
2023-03-13T03:55:12.652Z,99573.66
2023-03-13T03:55:35.417Z,99554.25
2023-03-13T03:55:57.609Z,99573.84
2023-03-13T03:56:19.378Z,99570.78
2023-03-13T03:56:47.102Z,99568.47
2023-03-13T03:57:09.714Z,99569.03
2023-03-13T03:57:33.336Z,99568.09
2023-03-13T03:57:55.578Z,99570.53
2023-03-13T03:58:36.511Z,99557.69
2023-03-13T03:59:16.346Z,99569.16
2023-03-13T03:59:58.402Z,99570.97
2023-03-13T04:00:21.988Z,99565.63
2023-03-13T04:00:48.456Z,99563.91
2023-03-13T04:01:10.117Z,99563.50
2023-03-13T04:01:32.029Z,99553.22
2023-03-13T04:01:53.896Z,99569.28
2023-03-13T04:02:19.541Z,99570.53
2023-03-13T04:02:43.582Z,99573.72
2023-03-13T04:03:06.910Z,99560.28
2023-03-13T04:03:30.303Z,99559.88
2023-03-13T04:03:52.009Z,99565.88
2023-03-13T04:04:13.920Z,99559.47
2023-03-13T04:04:38.818Z,99563.00
2023-03-13T04:05:07.858Z,99561.97
2023-03-13T04:05:31.043Z,99563.66
2023-03-13T04:05:53.483Z,99560.06
2023-03-13T04:06:17.826Z,99562.34
2023-03-13T04:06:41.798Z,99535.69
2023-03-13T04:07:04.415Z,99565.28
2023-03-13T04:07:27.182Z,99554.13
2023-03-13T04:07:50.089Z,99566.75
2023-03-13T04:08:11.984Z,99570.19
2023-03-13T04:08:33.874Z,99555.13
2023-03-13T04:08:56.043Z,99550.00
2023-03-13T04:09:21.555Z,99564.63
2023-03-13T04:09:43.564Z,99557.19
2023-03-13T04:10:12.353Z,99556.88
2023-03-13T04:10:39.835Z,99561.59
2023-03-13T04:11:02.784Z,99553.88
2023-03-13T04:11:28.338Z,99557.53
2023-03-13T04:11:52.481Z,99558.00
2023-03-13T04:12:15.229Z,99566.56
2023-03-13T04:12:40.317Z,99577.81
2023-03-13T04:13:02.680Z,99564.91
2023-03-13T04:13:24.561Z,99573.13
2023-03-13T04:13:47.214Z,99570.16
2023-03-13T04:14:09.104Z,99580.66
2023-03-13T04:14:30.774Z,99574.19
2023-03-13T04:14:54.394Z,99576.66
2023-03-13T04:15:16.483Z,99570.91
2023-03-13T04:15:38.597Z,99579.38
2023-03-13T04:16:00.579Z,99572.81
2023-03-13T04:16:23.710Z,99570.69
2023-03-13T04:16:46.917Z,99571.38
2023-03-13T04:17:11.273Z,99572.63
2023-03-13T04:17:33.859Z,99567.06
2023-03-13T04:17:57.234Z,99570.69
2023-03-13T04:18:19.293Z,99565.34
2023-03-13T04:18:41.172Z,99572.72
2023-03-13T04:19:02.844Z,99560.00
2023-03-13T04:19:26.239Z,99570.50
2023-03-13T04:19:48.307Z,99563.34
2023-03-13T04:20:13.534Z,99559.69
2023-03-13T04:20:37.768Z,99559.69
2023-03-13T04:21:04.019Z,99566.28
2023-03-13T04:21:32.515Z,99561.50
2023-03-13T04:21:58.637Z,99551.34
2023-03-13T04:22:21.741Z,99551.13
2023-03-13T04:22:48.535Z,99556.16
2023-03-13T04:23:11.303Z,99555.78
2023-03-13T04:23:33.305Z,99563.44
2023-03-13T04:23:56.157Z,99559.91
2023-03-13T04:24:19.541Z,99552.41
2023-03-13T04:24:41.425Z,99554.56
2023-03-13T04:25:03.708Z,99557.88
2023-03-13T04:25:28.217Z,99555.97
2023-03-13T04:25:53.737Z,99553.22
2023-03-13T04:26:16.349Z,99551.38
2023-03-13T04:26:38.769Z,99549.38
2023-03-13T04:27:09.508Z,99551.75
2023-03-13T04:27:33.574Z,99548.13
2023-03-13T04:27:56.148Z,99554.28
2023-03-13T04:28:21.378Z,99552.28
2023-03-13T04:28:43.141Z,99550.25
2023-03-13T04:29:08.199Z,99554.56
2023-03-13T04:29:51.916Z,99558.19
2023-03-13T04:30:26.721Z,99552.72
2023-03-13T04:31:15.407Z,99558.72
2023-03-13T04:32:02.280Z,99551.44
2023-03-13T04:32:38.837Z,99550.25
2023-03-13T04:33:20.763Z,99543.88
2023-03-13T04:33:57.858Z,99554.13
2023-03-13T04:34:36.441Z,99539.72
2023-03-13T04:35:10.457Z,99535.59
2023-03-13T04:35:48.811Z,99549.41
2023-03-13T04:36:27.294Z,99547.50
2023-03-13T04:37:09.254Z,99546.81
2023-03-13T04:37:54.830Z,99547.06
2023-03-13T04:38:36.398Z,99552.00
2023-03-13T04:39:18.180Z,99547.59
2023-03-13T04:40:01.118Z,99552.00
2023-03-13T04:40:37.467Z,99554.44
2023-03-13T04:41:22.282Z,99551.13
2023-03-13T04:42:21.734Z,99538.31
2023-03-13T04:43:03.720Z,99542.81
2023-03-13T04:43:41.575Z,99541.75
2023-03-13T04:44:23.900Z,99544.13
2023-03-13T04:45:10.829Z,99548.50
2023-03-13T04:45:55.484Z,99544.94
2023-03-13T04:46:43.074Z,99546.66
2023-03-13T04:47:16.261Z,99547.72
2023-03-13T04:48:02.745Z,99539.91
2023-03-13T04:48:56.677Z,99546.72
2023-03-13T04:49:42.245Z,99535.72
2023-03-13T04:50:21.623Z,99543.34
2023-03-13T04:50:57.552Z,99533.69
2023-03-13T04:51:31.805Z,99536.91
2023-03-13T04:52:13.451Z,99528.44
2023-03-13T04:52:56.339Z,99534.84